sensor_id;sensor_type;location;lat;lon;timestamp;P1;durP1;ratioP1;P2;durP2;ratioP2
12267;SDS011;6196;48.398;11.736;2023-07-31T00:01:55;2.93;;;1.77;;
12267;SDS011;6196;48.398;11.736;2023-07-31T00:04:22;3.90;;;1.97;;
12267;SDS011;6196;48.398;11.736;2023-07-31T00:06:49;3.47;;;1.77;;
12267;SDS011;6196;48.398;11.736;2023-07-31T00:09:16;6.37;;;1.83;;
12267;SDS011;6196;48.398;11.736;2023-07-31T00:11:43;2.33;;;1.80;;
12267;SDS011;6196;48.398;11.736;2023-07-31T00:14:09;4.13;;;2.03;;
12267;SDS011;6196;48.398;11.736;2023-07-31T00:16:36;2.67;;;2.00;;
12267;SDS011;6196;48.398;11.736;2023-07-31T00:19:04;3.10;;;1.80;;
12267;SDS011;6196;48.398;11.736;2023-07-31T00:21:31;3.27;;;2.13;;
12267;SDS011;6196;48.398;11.736;2023-07-31T00:23:58;3.90;;;1.90;;
12267;SDS011;6196;48.398;11.736;2023-07-31T00:26:24;4.50;;;2.20;;
12267;SDS011;6196;48.398;11.736;2023-07-31T00:28:51;5.80;;;2.17;;
12267;SDS011;6196;48.398;11.736;2023-07-31T00:31:18;5.30;;;2.43;;
12267;SDS011;6196;48.398;11.736;2023-07-31T00:33:45;4.20;;;1.83;;
12267;SDS011;6196;48.398;11.736;2023-07-31T00:36:12;5.43;;;2.07;;
12267;SDS011;6196;48.398;11.736;2023-07-31T00:38:39;3.23;;;1.60;;
12267;SDS011;6196;48.398;11.736;2023-07-31T00:41:06;3.60;;;1.97;;
12267;SDS011;6196;48.398;11.736;2023-07-31T00:43:33;3.37;;;2.10;;
12267;SDS011;6196;48.398;11.736;2023-07-31T00:46:00;3.73;;;2.00;;
12267;SDS011;6196;48.398;11.736;2023-07-31T00:48:27;5.83;;;1.97;;
12267;SDS011;6196;48.398;11.736;2023-07-31T00:50:54;4.53;;;1.90;;
12267;SDS011;6196;48.398;11.736;2023-07-31T00:53:21;2.57;;;1.80;;
12267;SDS011;6196;48.398;11.736;2023-07-31T00:55:49;5.07;;;1.97;;
12267;SDS011;6196;48.398;11.736;2023-07-31T00:58:16;2.07;;;1.80;;
12267;SDS011;6196;48.398;11.736;2023-07-31T01:00:43;2.80;;;2.03;;
12267;SDS011;6196;48.398;11.736;2023-07-31T01:03:10;2.93;;;1.97;;
12267;SDS011;6196;48.398;11.736;2023-07-31T01:08:33;3.33;;;2.20;;
12267;SDS011;6196;48.398;11.736;2023-07-31T01:11:38;4.67;;;2.00;;
12267;SDS011;6196;48.398;11.736;2023-07-31T01:14:13;3.93;;;2.10;;
12267;SDS011;6196;48.398;11.736;2023-07-31T01:16:40;6.43;;;2.00;;
12267;SDS011;6196;48.398;11.736;2023-07-31T01:19:08;2.47;;;2.00;;
12267;SDS011;6196;48.398;11.736;2023-07-31T01:27:21;5.13;;;2.27;;
12267;SDS011;6196;48.398;11.736;2023-07-31T01:30:15;5.70;;;2.30;;
12267;SDS011;6196;48.398;11.736;2023-07-31T01:32:45;4.00;;;2.10;;
12267;SDS011;6196;48.398;11.736;2023-07-31T01:35:15;3.43;;;2.20;;
12267;SDS011;6196;48.398;11.736;2023-07-31T01:37:42;4.40;;;2.07;;
12267;SDS011;6196;48.398;11.736;2023-07-31T01:40:09;6.43;;;2.43;;
12267;SDS011;6196;48.398;11.736;2023-07-31T01:42:37;3.37;;;2.30;;
12267;SDS011;6196;48.398;11.736;2023-07-31T01:45:04;3.17;;;2.27;;
12267;SDS011;6196;48.398;11.736;2023-07-31T01:47:31;3.17;;;2.23;;
12267;SDS011;6196;48.398;11.736;2023-07-31T01:49:58;4.63;;;2.00;;
12267;SDS011;6196;48.398;11.736;2023-07-31T01:52:25;3.40;;;2.07;;
12267;SDS011;6196;48.398;11.736;2023-07-31T01:54:52;3.77;;;2.00;;
12267;SDS011;6196;48.398;11.736;2023-07-31T01:57:19;4.20;;;2.57;;
12267;SDS011;6196;48.398;11.736;2023-07-31T01:59:46;3.50;;;1.80;;
12267;SDS011;6196;48.398;11.736;2023-07-31T02:02:13;3.17;;;1.87;;
12267;SDS011;6196;48.398;11.736;2023-07-31T02:04:40;5.07;;;2.40;;
12267;SDS011;6196;48.398;11.736;2023-07-31T02:07:07;3.00;;;2.27;;
12267;SDS011;6196;48.398;11.736;2023-07-31T02:09:34;3.67;;;2.10;;
12267;SDS011;6196;48.398;11.736;2023-07-31T02:12:01;2.53;;;2.00;;
12267;SDS011;6196;48.398;11.736;2023-07-31T02:14:28;3.47;;;2.17;;
12267;SDS011;6196;48.398;11.736;2023-07-31T02:16:55;4.30;;;2.37;;
12267;SDS011;6196;48.398;11.736;2023-07-31T02:19:22;3.20;;;2.27;;
12267;SDS011;6196;48.398;11.736;2023-07-31T02:21:49;2.70;;;1.80;;
12267;SDS011;6196;48.398;11.736;2023-07-31T02:24:15;4.27;;;2.40;;
12267;SDS011;6196;48.398;11.736;2023-07-31T02:26:42;2.10;;;1.90;;
12267;SDS011;6196;48.398;11.736;2023-07-31T02:29:09;2.50;;;2.10;;
12267;SDS011;6196;48.398;11.736;2023-07-31T02:31:36;2.67;;;2.07;;
12267;SDS011;6196;48.398;11.736;2023-07-31T02:34:03;3.27;;;2.20;;
12267;SDS011;6196;48.398;11.736;2023-07-31T02:36:30;5.83;;;2.40;;
12267;SDS011;6196;48.398;11.736;2023-07-31T02:38:57;4.43;;;2.23;;
12267;SDS011;6196;48.398;11.736;2023-07-31T02:41:24;4.37;;;1.70;;
12267;SDS011;6196;48.398;11.736;2023-07-31T02:43:51;4.10;;;2.20;;
12267;SDS011;6196;48.398;11.736;2023-07-31T02:46:18;2.40;;;1.83;;
12267;SDS011;6196;48.398;11.736;2023-07-31T02:48:46;3.73;;;2.10;;
12267;SDS011;6196;48.398;11.736;2023-07-31T02:51:13;2.80;;;2.30;;
12267;SDS011;6196;48.398;11.736;2023-07-31T02:53:40;4.07;;;2.23;;
12267;SDS011;6196;48.398;11.736;2023-07-31T02:56:07;4.03;;;2.17;;
12267;SDS011;6196;48.398;11.736;2023-07-31T02:58:34;2.33;;;2.10;;
12267;SDS011;6196;48.398;11.736;2023-07-31T03:01:00;3.10;;;2.30;;
12267;SDS011;6196;48.398;11.736;2023-07-31T03:03:28;4.07;;;2.40;;
12267;SDS011;6196;48.398;11.736;2023-07-31T03:05:55;3.37;;;2.30;;
12267;SDS011;6196;48.398;11.736;2023-07-31T03:08:22;3.37;;;2.53;;
12267;SDS011;6196;48.398;11.736;2023-07-31T03:10:49;3.43;;;2.27;;
12267;SDS011;6196;48.398;11.736;2023-07-31T03:13:16;4.40;;;2.47;;
12267;SDS011;6196;48.398;11.736;2023-07-31T03:15:43;3.73;;;2.20;;
12267;SDS011;6196;48.398;11.736;2023-07-31T03:18:10;4.17;;;2.20;;
12267;SDS011;6196;48.398;11.736;2023-07-31T03:20:37;3.53;;;2.13;;
12267;SDS011;6196;48.398;11.736;2023-07-31T03:23:08;5.33;;;2.67;;
12267;SDS011;6196;48.398;11.736;2023-07-31T03:25:35;4.57;;;2.20;;
12267;SDS011;6196;48.398;11.736;2023-07-31T03:28:02;4.60;;;2.63;;
12267;SDS011;6196;48.398;11.736;2023-07-31T03:30:29;3.23;;;2.27;;
12267;SDS011;6196;48.398;11.736;2023-07-31T03:32:56;3.43;;;2.40;;
12267;SDS011;6196;48.398;11.736;2023-07-31T03:35:23;4.90;;;2.33;;
12267;SDS011;6196;48.398;11.736;2023-07-31T03:37:50;3.93;;;2.80;;
12267;SDS011;6196;48.398;11.736;2023-07-31T03:40:17;3.60;;;2.20;;
12267;SDS011;6196;48.398;11.736;2023-07-31T03:42:44;3.57;;;2.30;;
12267;SDS011;6196;48.398;11.736;2023-07-31T03:45:11;4.73;;;2.20;;
12267;SDS011;6196;48.398;11.736;2023-07-31T03:47:37;5.83;;;2.37;;
12267;SDS011;6196;48.398;11.736;2023-07-31T03:50:05;4.17;;;2.50;;
12267;SDS011;6196;48.398;11.736;2023-07-31T03:52:32;3.73;;;2.53;;
12267;SDS011;6196;48.398;11.736;2023-07-31T03:54:59;4.40;;;2.50;;
12267;SDS011;6196;48.398;11.736;2023-07-31T03:57:26;2.83;;;2.40;;
12267;SDS011;6196;48.398;11.736;2023-07-31T03:59:53;3.97;;;2.40;;
12267;SDS011;6196;48.398;11.736;2023-07-31T04:02:20;2.50;;;2.07;;
12267;SDS011;6196;48.398;11.736;2023-07-31T04:04:47;3.50;;;2.13;;
12267;SDS011;6196;48.398;11.736;2023-07-31T04:07:14;6.27;;;2.40;;
12267;SDS011;6196;48.398;11.736;2023-07-31T04:09:40;4.43;;;2.10;;
12267;SDS011;6196;48.398;11.736;2023-07-31T04:12:07;7.27;;;2.00;;
12267;SDS011;6196;48.398;11.736;2023-07-31T04:14:34;4.50;;;2.37;;
12267;SDS011;6196;48.398;11.736;2023-07-31T04:17:01;3.53;;;2.13;;
12267;SDS011;6196;48.398;11.736;2023-07-31T04:19:28;2.93;;;2.10;;
12267;SDS011;6196;48.398;11.736;2023-07-31T04:21:55;4.70;;;2.20;;
12267;SDS011;6196;48.398;11.736;2023-07-31T04:24:22;2.70;;;2.03;;
12267;SDS011;6196;48.398;11.736;2023-07-31T04:26:52;2.80;;;1.77;;
12267;SDS011;6196;48.398;11.736;2023-07-31T04:29:19;3.40;;;2.03;;
12267;SDS011;6196;48.398;11.736;2023-07-31T04:31:47;3.07;;;2.10;;
12267;SDS011;6196;48.398;11.736;2023-07-31T04:34:15;3.80;;;2.00;;
12267;SDS011;6196;48.398;11.736;2023-07-31T04:36:41;3.20;;;1.87;;
12267;SDS011;6196;48.398;11.736;2023-07-31T04:39:08;3.53;;;2.30;;
12267;SDS011;6196;48.398;11.736;2023-07-31T04:41:35;2.80;;;2.23;;
12267;SDS011;6196;48.398;11.736;2023-07-31T04:44:02;4.87;;;2.10;;
12267;SDS011;6196;48.398;11.736;2023-07-31T04:46:30;2.60;;;2.20;;
12267;SDS011;6196;48.398;11.736;2023-07-31T04:48:57;3.00;;;1.90;;
12267;SDS011;6196;48.398;11.736;2023-07-31T04:51:24;2.60;;;1.70;;
12267;SDS011;6196;48.398;11.736;2023-07-31T04:53:51;2.70;;;1.97;;
12267;SDS011;6196;48.398;11.736;2023-07-31T04:56:18;2.70;;;2.20;;
12267;SDS011;6196;48.398;11.736;2023-07-31T04:58:45;7.23;;;2.60;;
12267;SDS011;6196;48.398;11.736;2023-07-31T05:01:12;2.97;;;2.17;;
12267;SDS011;6196;48.398;11.736;2023-07-31T05:03:39;4.40;;;2.27;;
12267;SDS011;6196;48.398;11.736;2023-07-31T05:06:06;4.33;;;2.20;;
12267;SDS011;6196;48.398;11.736;2023-07-31T05:08:33;4.03;;;2.20;;
12267;SDS011;6196;48.398;11.736;2023-07-31T05:10:59;2.07;;;1.67;;
12267;SDS011;6196;48.398;11.736;2023-07-31T05:13:26;5.97;;;2.87;;
12267;SDS011;6196;48.398;11.736;2023-07-31T05:15:53;4.17;;;2.37;;
12267;SDS011;6196;48.398;11.736;2023-07-31T05:18:20;5.57;;;2.70;;
12267;SDS011;6196;48.398;11.736;2023-07-31T05:20:47;3.33;;;2.20;;
12267;SDS011;6196;48.398;11.736;2023-07-31T05:23:14;3.07;;;2.20;;
12267;SDS011;6196;48.398;11.736;2023-07-31T05:25:41;5.47;;;2.50;;
12267;SDS011;6196;48.398;11.736;2023-07-31T05:28:08;4.43;;;2.47;;
12267;SDS011;6196;48.398;11.736;2023-07-31T05:30:35;5.13;;;2.63;;
12267;SDS011;6196;48.398;11.736;2023-07-31T05:33:02;6.47;;;2.50;;
12267;SDS011;6196;48.398;11.736;2023-07-31T05:35:29;3.13;;;2.43;;
12267;SDS011;6196;48.398;11.736;2023-07-31T05:37:56;4.17;;;2.70;;
12267;SDS011;6196;48.398;11.736;2023-07-31T05:40:23;4.03;;;2.73;;
12267;SDS011;6196;48.398;11.736;2023-07-31T05:42:50;4.10;;;2.90;;
12267;SDS011;6196;48.398;11.736;2023-07-31T05:45:18;6.67;;;2.87;;
12267;SDS011;6196;48.398;11.736;2023-07-31T05:47:45;5.60;;;2.70;;
12267;SDS011;6196;48.398;11.736;2023-07-31T05:50:12;3.87;;;2.40;;
12267;SDS011;6196;48.398;11.736;2023-07-31T05:52:40;4.87;;;2.80;;
12267;SDS011;6196;48.398;11.736;2023-07-31T05:55:07;4.70;;;2.30;;
12267;SDS011;6196;48.398;11.736;2023-07-31T05:57:34;2.80;;;2.30;;
12267;SDS011;6196;48.398;11.736;2023-07-31T06:00:02;3.03;;;2.50;;
12267;SDS011;6196;48.398;11.736;2023-07-31T06:02:29;5.67;;;2.13;;
12267;SDS011;6196;48.398;11.736;2023-07-31T06:04:59;2.30;;;1.90;;
12267;SDS011;6196;48.398;11.736;2023-07-31T06:07:27;3.77;;;2.50;;
12267;SDS011;6196;48.398;11.736;2023-07-31T06:09:54;4.10;;;2.47;;
12267;SDS011;6196;48.398;11.736;2023-07-31T06:12:21;3.13;;;2.37;;
12267;SDS011;6196;48.398;11.736;2023-07-31T06:14:48;4.13;;;2.43;;
12267;SDS011;6196;48.398;11.736;2023-07-31T06:17:15;3.97;;;2.50;;
12267;SDS011;6196;48.398;11.736;2023-07-31T06:19:42;3.87;;;2.07;;
12267;SDS011;6196;48.398;11.736;2023-07-31T06:22:09;4.20;;;2.30;;
12267;SDS011;6196;48.398;11.736;2023-07-31T06:24:36;4.20;;;2.00;;
12267;SDS011;6196;48.398;11.736;2023-07-31T06:27:03;3.70;;;2.30;;
12267;SDS011;6196;48.398;11.736;2023-07-31T06:29:31;2.90;;;2.00;;
12267;SDS011;6196;48.398;11.736;2023-07-31T06:31:58;3.27;;;2.10;;
12267;SDS011;6196;48.398;11.736;2023-07-31T06:34:29;2.77;;;1.93;;
12267;SDS011;6196;48.398;11.736;2023-07-31T06:36:56;3.43;;;2.30;;
12267;SDS011;6196;48.398;11.736;2023-07-31T06:39:23;2.97;;;2.07;;
12267;SDS011;6196;48.398;11.736;2023-07-31T06:41:50;3.80;;;2.00;;
12267;SDS011;6196;48.398;11.736;2023-07-31T06:44:17;3.00;;;1.93;;
12267;SDS011;6196;48.398;11.736;2023-07-31T06:46:43;4.67;;;1.90;;
12267;SDS011;6196;48.398;11.736;2023-07-31T06:49:10;5.57;;;2.00;;
12267;SDS011;6196;48.398;11.736;2023-07-31T06:51:39;5.23;;;2.10;;
12267;SDS011;6196;48.398;11.736;2023-07-31T06:54:05;3.17;;;2.23;;
12267;SDS011;6196;48.398;11.736;2023-07-31T06:56:33;2.67;;;2.00;;
12267;SDS011;6196;48.398;11.736;2023-07-31T06:59:04;5.30;;;2.20;;
12267;SDS011;6196;48.398;11.736;2023-07-31T07:01:31;2.97;;;2.20;;
12267;SDS011;6196;48.398;11.736;2023-07-31T07:03:58;4.27;;;2.40;;
12267;SDS011;6196;48.398;11.736;2023-07-31T07:06:25;3.43;;;2.10;;
12267;SDS011;6196;48.398;11.736;2023-07-31T07:08:52;3.50;;;2.40;;
12267;SDS011;6196;48.398;11.736;2023-07-31T07:11:19;2.30;;;2.10;;
12267;SDS011;6196;48.398;11.736;2023-07-31T07:13:55;6.23;;;2.40;;
12267;SDS011;6196;48.398;11.736;2023-07-31T07:16:22;2.23;;;1.93;;
12267;SDS011;6196;48.398;11.736;2023-07-31T07:18:49;3.17;;;1.90;;
12267;SDS011;6196;48.398;11.736;2023-07-31T07:21:29;3.57;;;2.10;;
12267;SDS011;6196;48.398;11.736;2023-07-31T07:23:56;6.30;;;2.13;;
12267;SDS011;6196;48.398;11.736;2023-07-31T07:26:23;4.20;;;2.20;;
12267;SDS011;6196;48.398;11.736;2023-07-31T07:28:53;6.00;;;2.13;;
12267;SDS011;6196;48.398;11.736;2023-07-31T07:31:20;3.00;;;2.10;;
12267;SDS011;6196;48.398;11.736;2023-07-31T07:33:47;3.67;;;1.90;;
12267;SDS011;6196;48.398;11.736;2023-07-31T07:36:13;3.47;;;2.00;;
12267;SDS011;6196;48.398;11.736;2023-07-31T07:38:40;5.13;;;2.27;;
12267;SDS011;6196;48.398;11.736;2023-07-31T07:41:08;3.63;;;2.00;;
12267;SDS011;6196;48.398;11.736;2023-07-31T07:43:35;3.73;;;2.10;;
12267;SDS011;6196;48.398;11.736;2023-07-31T07:46:02;3.27;;;1.90;;
12267;SDS011;6196;48.398;11.736;2023-07-31T07:48:29;2.93;;;2.10;;
12267;SDS011;6196;48.398;11.736;2023-07-31T07:50:56;3.07;;;1.80;;
12267;SDS011;6196;48.398;11.736;2023-07-31T07:53:23;1.97;;;1.77;;
12267;SDS011;6196;48.398;11.736;2023-07-31T07:55:49;3.23;;;1.80;;
12267;SDS011;6196;48.398;11.736;2023-07-31T07:58:16;3.63;;;1.70;;
12267;SDS011;6196;48.398;11.736;2023-07-31T08:00:48;3.90;;;1.80;;
12267;SDS011;6196;48.398;11.736;2023-07-31T08:03:17;4.27;;;1.93;;
12267;SDS011;6196;48.398;11.736;2023-07-31T08:05:44;4.03;;;1.63;;
12267;SDS011;6196;48.398;11.736;2023-07-31T08:08:15;3.43;;;1.80;;
12267;SDS011;6196;48.398;11.736;2023-07-31T08:10:42;2.17;;;1.57;;
12267;SDS011;6196;48.398;11.736;2023-07-31T08:13:12;2.93;;;1.50;;
12267;SDS011;6196;48.398;11.736;2023-07-31T08:15:42;3.80;;;1.43;;
12267;SDS011;6196;48.398;11.736;2023-07-31T08:18:09;3.50;;;1.60;;
12267;SDS011;6196;48.398;11.736;2023-07-31T08:20:38;3.33;;;1.60;;
12267;SDS011;6196;48.398;11.736;2023-07-31T08:23:05;2.93;;;1.53;;
12267;SDS011;6196;48.398;11.736;2023-07-31T08:25:34;3.03;;;1.60;;
12267;SDS011;6196;48.398;11.736;2023-07-31T08:28:02;5.43;;;2.17;;
12267;SDS011;6196;48.398;11.736;2023-07-31T08:30:31;4.43;;;1.73;;
12267;SDS011;6196;48.398;11.736;2023-07-31T08:32:59;2.37;;;1.70;;
12267;SDS011;6196;48.398;11.736;2023-07-31T08:35:27;2.63;;;1.67;;
12267;SDS011;6196;48.398;11.736;2023-07-31T08:37:56;3.37;;;2.10;;
12267;SDS011;6196;48.398;11.736;2023-07-31T08:40:23;2.57;;;1.70;;
12267;SDS011;6196;48.398;11.736;2023-07-31T08:42:52;5.60;;;1.90;;
12267;SDS011;6196;48.398;11.736;2023-07-31T08:45:20;2.50;;;1.73;;
12267;SDS011;6196;48.398;11.736;2023-07-31T08:47:48;6.00;;;1.90;;
12267;SDS011;6196;48.398;11.736;2023-07-31T08:50:18;4.43;;;1.60;;
12267;SDS011;6196;48.398;11.736;2023-07-31T08:52:47;4.03;;;2.00;;
12267;SDS011;6196;48.398;11.736;2023-07-31T08:55:15;3.23;;;1.47;;
12267;SDS011;6196;48.398;11.736;2023-07-31T08:57:42;2.27;;;1.70;;
12267;SDS011;6196;48.398;11.736;2023-07-31T09:00:10;3.13;;;1.60;;
12267;SDS011;6196;48.398;11.736;2023-07-31T09:02:45;2.80;;;1.67;;
12267;SDS011;6196;48.398;11.736;2023-07-31T09:05:21;2.43;;;1.40;;
12267;SDS011;6196;48.398;11.736;2023-07-31T09:07:50;4.13;;;1.37;;
12267;SDS011;6196;48.398;11.736;2023-07-31T09:10:17;3.57;;;2.00;;
12267;SDS011;6196;48.398;11.736;2023-07-31T09:12:44;5.37;;;1.67;;
12267;SDS011;6196;48.398;11.736;2023-07-31T09:15:13;4.90;;;1.50;;
12267;SDS011;6196;48.398;11.736;2023-07-31T09:18:01;4.83;;;1.90;;
12267;SDS011;6196;48.398;11.736;2023-07-31T09:20:29;3.60;;;1.67;;
12267;SDS011;6196;48.398;11.736;2023-07-31T09:22:56;3.20;;;1.77;;
12267;SDS011;6196;48.398;11.736;2023-07-31T09:25:25;3.60;;;1.60;;
12267;SDS011;6196;48.398;11.736;2023-07-31T09:28:05;2.70;;;1.43;;
12267;SDS011;6196;48.398;11.736;2023-07-31T09:30:44;4.10;;;1.60;;
12267;SDS011;6196;48.398;11.736;2023-07-31T09:33:17;3.30;;;1.60;;
12267;SDS011;6196;48.398;11.736;2023-07-31T09:39:10;2.43;;;1.90;;
12267;SDS011;6196;48.398;11.736;2023-07-31T09:41:42;4.87;;;1.80;;
12267;SDS011;6196;48.398;11.736;2023-07-31T09:44:11;3.90;;;1.57;;
12267;SDS011;6196;48.398;11.736;2023-07-31T09:46:38;6.40;;;1.70;;
12267;SDS011;6196;48.398;11.736;2023-07-31T09:49:09;4.30;;;2.33;;
12267;SDS011;6196;48.398;11.736;2023-07-31T09:51:38;3.40;;;1.60;;
12267;SDS011;6196;48.398;11.736;2023-07-31T09:54:14;3.17;;;1.90;;
12267;SDS011;6196;48.398;11.736;2023-07-31T09:56:46;5.13;;;1.70;;
12267;SDS011;6196;48.398;11.736;2023-07-31T09:59:15;4.10;;;1.47;;
12267;SDS011;6196;48.398;11.736;2023-07-31T10:01:49;5.03;;;2.03;;
12267;SDS011;6196;48.398;11.736;2023-07-31T10:04:16;9.57;;;2.37;;
12267;SDS011;6196;48.398;11.736;2023-07-31T10:06:47;4.70;;;1.53;;
12267;SDS011;6196;48.398;11.736;2023-07-31T10:09:16;5.53;;;1.90;;
12267;SDS011;6196;48.398;11.736;2023-07-31T10:11:47;3.63;;;1.47;;
12267;SDS011;6196;48.398;11.736;2023-07-31T10:14:22;1.50;;;1.33;;
12267;SDS011;6196;48.398;11.736;2023-07-31T10:16:50;3.53;;;1.53;;
12267;SDS011;6196;48.398;11.736;2023-07-31T10:19:19;3.47;;;1.70;;
12267;SDS011;6196;48.398;11.736;2023-07-31T10:21:48;2.60;;;1.83;;
12267;SDS011;6196;48.398;11.736;2023-07-31T10:24:15;3.13;;;1.60;;
12267;SDS011;6196;48.398;11.736;2023-07-31T10:26:43;3.60;;;1.97;;
12267;SDS011;6196;48.398;11.736;2023-07-31T10:29:14;3.63;;;1.70;;
12267;SDS011;6196;48.398;11.736;2023-07-31T10:31:43;4.17;;;1.90;;
12267;SDS011;6196;48.398;11.736;2023-07-31T10:34:12;2.90;;;1.70;;
12267;SDS011;6196;48.398;11.736;2023-07-31T10:36:40;3.17;;;1.67;;
12267;SDS011;6196;48.398;11.736;2023-07-31T10:39:33;4.80;;;1.40;;
12267;SDS011;6196;48.398;11.736;2023-07-31T10:42:12;2.93;;;1.80;;
12267;SDS011;6196;48.398;11.736;2023-07-31T10:44:49;2.40;;;1.73;;
12267;SDS011;6196;48.398;11.736;2023-07-31T10:47:15;3.70;;;1.63;;
12267;SDS011;6196;48.398;11.736;2023-07-31T10:49:47;3.63;;;1.60;;
12267;SDS011;6196;48.398;11.736;2023-07-31T10:52:19;3.20;;;1.50;;
12267;SDS011;6196;48.398;11.736;2023-07-31T10:55:38;3.90;;;1.80;;
12267;SDS011;6196;48.398;11.736;2023-07-31T10:57:52;4.77;;;1.80;;
12267;SDS011;6196;48.398;11.736;2023-07-31T11:00:42;2.53;;;1.70;;
12267;SDS011;6196;48.398;11.736;2023-07-31T11:03:15;3.33;;;1.60;;
12267;SDS011;6196;48.398;11.736;2023-07-31T11:08:43;2.93;;;1.60;;
12267;SDS011;6196;48.398;11.736;2023-07-31T11:11:18;2.67;;;1.60;;
12267;SDS011;6196;48.398;11.736;2023-07-31T11:13:47;4.55;;;1.60;;
12267;SDS011;6196;48.398;11.736;2023-07-31T11:16:17;3.20;;;1.73;;
12267;SDS011;6196;48.398;11.736;2023-07-31T11:18:46;2.80;;;1.70;;
12267;SDS011;6196;48.398;11.736;2023-07-31T11:21:16;4.13;;;1.80;;
12267;SDS011;6196;48.398;11.736;2023-07-31T11:23:52;5.20;;;2.03;;
12267;SDS011;6196;48.398;11.736;2023-07-31T11:26:25;2.27;;;1.70;;
12267;SDS011;6196;48.398;11.736;2023-07-31T11:28:54;3.93;;;1.73;;
12267;SDS011;6196;48.398;11.736;2023-07-31T11:31:20;1.97;;;1.50;;
12267;SDS011;6196;48.398;11.736;2023-07-31T11:33:48;4.03;;;1.90;;
12267;SDS011;6196;48.398;11.736;2023-07-31T11:36:16;3.90;;;1.57;;
12267;SDS011;6196;48.398;11.736;2023-07-31T11:38:44;3.47;;;1.60;;
12267;SDS011;6196;48.398;11.736;2023-07-31T11:41:13;4.37;;;2.10;;
12267;SDS011;6196;48.398;11.736;2023-07-31T11:43:42;2.40;;;1.67;;
12267;SDS011;6196;48.398;11.736;2023-07-31T11:46:09;2.73;;;1.30;;
12267;SDS011;6196;48.398;11.736;2023-07-31T11:48:37;3.30;;;1.80;;
12267;SDS011;6196;48.398;11.736;2023-07-31T11:51:04;4.53;;;1.50;;
12267;SDS011;6196;48.398;11.736;2023-07-31T11:56:09;3.03;;;1.70;;
12267;SDS011;6196;48.398;11.736;2023-07-31T11:58:39;4.57;;;1.67;;
12267;SDS011;6196;48.398;11.736;2023-07-31T12:01:09;3.37;;;1.70;;
12267;SDS011;6196;48.398;11.736;2023-07-31T12:03:37;3.23;;;1.53;;
12267;SDS011;6196;48.398;11.736;2023-07-31T12:06:05;4.20;;;1.93;;
12267;SDS011;6196;48.398;11.736;2023-07-31T12:08:32;3.53;;;1.50;;
12267;SDS011;6196;48.398;11.736;2023-07-31T12:11:02;5.60;;;1.70;;
12267;SDS011;6196;48.398;11.736;2023-07-31T12:13:32;3.17;;;1.73;;
12267;SDS011;6196;48.398;11.736;2023-07-31T12:16:00;3.47;;;1.50;;
12267;SDS011;6196;48.398;11.736;2023-07-31T12:18:31;3.67;;;1.80;;
12267;SDS011;6196;48.398;11.736;2023-07-31T12:21:02;4.23;;;1.80;;
12267;SDS011;6196;48.398;11.736;2023-07-31T12:23:33;4.07;;;1.97;;
12267;SDS011;6196;48.398;11.736;2023-07-31T12:33:46;4.13;;;1.93;;
12267;SDS011;6196;48.398;11.736;2023-07-31T12:36:16;4.67;;;1.60;;
12267;SDS011;6196;48.398;11.736;2023-07-31T12:38:46;5.83;;;1.97;;
12267;SDS011;6196;48.398;11.736;2023-07-31T12:41:14;4.00;;;2.00;;
12267;SDS011;6196;48.398;11.736;2023-07-31T12:43:41;3.37;;;2.00;;
12267;SDS011;6196;48.398;11.736;2023-07-31T12:46:10;4.07;;;1.87;;
12267;SDS011;6196;48.398;11.736;2023-07-31T12:48:38;5.57;;;1.80;;
12267;SDS011;6196;48.398;11.736;2023-07-31T12:51:05;1.90;;;1.70;;
12267;SDS011;6196;48.398;11.736;2023-07-31T12:53:35;2.43;;;1.60;;
12267;SDS011;6196;48.398;11.736;2023-07-31T12:56:02;3.60;;;1.90;;
12267;SDS011;6196;48.398;11.736;2023-07-31T12:58:30;3.73;;;1.93;;
12267;SDS011;6196;48.398;11.736;2023-07-31T13:00:57;3.53;;;1.80;;
12267;SDS011;6196;48.398;11.736;2023-07-31T13:03:24;2.67;;;1.80;;
12267;SDS011;6196;48.398;11.736;2023-07-31T13:05:51;2.13;;;1.50;;
12267;SDS011;6196;48.398;11.736;2023-07-31T13:08:19;3.72;;;2.00;;
12267;SDS011;6196;48.398;11.736;2023-07-31T13:10:46;3.15;;;1.95;;
12267;SDS011;6196;48.398;11.736;2023-07-31T13:13:13;2.75;;;1.70;;
12267;SDS011;6196;48.398;11.736;2023-07-31T13:15:40;2.92;;;1.75;;
12267;SDS011;6196;48.398;11.736;2023-07-31T13:18:08;3.33;;;1.73;;
12267;SDS011;6196;48.398;11.736;2023-07-31T13:20:35;3.17;;;1.90;;
12267;SDS011;6196;48.398;11.736;2023-07-31T13:23:02;5.43;;;1.60;;
12267;SDS011;6196;48.398;11.736;2023-07-31T13:25:29;2.47;;;1.87;;
12267;SDS011;6196;48.398;11.736;2023-07-31T13:27:56;3.53;;;1.80;;
12267;SDS011;6196;48.398;11.736;2023-07-31T13:30:26;2.35;;;1.70;;
12267;SDS011;6196;48.398;11.736;2023-07-31T13:32:53;4.38;;;1.85;;
12267;SDS011;6196;48.398;11.736;2023-07-31T13:35:20;2.72;;;1.63;;
12267;SDS011;6196;48.398;11.736;2023-07-31T13:37:47;3.63;;;1.75;;
12267;SDS011;6196;48.398;11.736;2023-07-31T13:40:14;3.63;;;1.58;;
12267;SDS011;6196;48.398;11.736;2023-07-31T13:42:41;2.80;;;1.83;;
12267;SDS011;6196;48.398;11.736;2023-07-31T13:45:08;3.72;;;1.85;;
12267;SDS011;6196;48.398;11.736;2023-07-31T13:47:35;13.20;;;1.88;;
12267;SDS011;6196;48.398;11.736;2023-07-31T13:50:03;3.75;;;1.77;;
12267;SDS011;6196;48.398;11.736;2023-07-31T13:52:31;2.65;;;1.58;;
12267;SDS011;6196;48.398;11.736;2023-07-31T13:54:58;3.13;;;1.90;;
12267;SDS011;6196;48.398;11.736;2023-07-31T13:57:25;3.45;;;1.95;;
12267;SDS011;6196;48.398;11.736;2023-07-31T13:59:52;5.80;;;1.83;;
12267;SDS011;6196;48.398;11.736;2023-07-31T14:02:19;2.45;;;1.80;;
12267;SDS011;6196;48.398;11.736;2023-07-31T14:04:46;4.38;;;2.30;;
12267;SDS011;6196;48.398;11.736;2023-07-31T14:07:13;4.88;;;1.80;;
12267;SDS011;6196;48.398;11.736;2023-07-31T14:09:40;4.18;;;2.00;;
12267;SDS011;6196;48.398;11.736;2023-07-31T14:12:07;2.97;;;1.70;;
12267;SDS011;6196;48.398;11.736;2023-07-31T14:14:34;1.98;;;1.73;;
12267;SDS011;6196;48.398;11.736;2023-07-31T14:17:01;2.75;;;1.60;;
12267;SDS011;6196;48.398;11.736;2023-07-31T14:19:28;3.22;;;1.83;;
12267;SDS011;6196;48.398;11.736;2023-07-31T14:21:57;2.58;;;1.80;;
12267;SDS011;6196;48.398;11.736;2023-07-31T14:24:37;3.47;;;1.83;;
12267;SDS011;6196;48.398;11.736;2023-07-31T14:27:04;3.40;;;1.92;;
12267;SDS011;6196;48.398;11.736;2023-07-31T14:29:32;2.45;;;1.83;;
12267;SDS011;6196;48.398;11.736;2023-07-31T14:31:58;2.80;;;1.90;;
12267;SDS011;6196;48.398;11.736;2023-07-31T14:34:26;4.72;;;2.03;;
12267;SDS011;6196;48.398;11.736;2023-07-31T14:36:53;3.28;;;1.85;;
12267;SDS011;6196;48.398;11.736;2023-07-31T14:39:20;5.10;;;1.95;;
12267;SDS011;6196;48.398;11.736;2023-07-31T14:41:47;4.68;;;2.08;;
12267;SDS011;6196;48.398;11.736;2023-07-31T14:44:14;6.15;;;2.03;;
12267;SDS011;6196;48.398;11.736;2023-07-31T14:46:41;5.95;;;2.10;;
12267;SDS011;6196;48.398;11.736;2023-07-31T14:49:09;3.08;;;1.85;;
12267;SDS011;6196;48.398;11.736;2023-07-31T14:51:36;4.20;;;2.20;;
12267;SDS011;6196;48.398;11.736;2023-07-31T14:54:03;6.13;;;2.53;;
12267;SDS011;6196;48.398;11.736;2023-07-31T14:56:30;4.23;;;2.50;;
12267;SDS011;6196;48.398;11.736;2023-07-31T14:58:57;3.43;;;1.90;;
12267;SDS011;6196;48.398;11.736;2023-07-31T15:01:24;2.40;;;1.90;;
12267;SDS011;6196;48.398;11.736;2023-07-31T15:03:51;4.17;;;2.00;;
12267;SDS011;6196;48.398;11.736;2023-07-31T15:06:18;3.67;;;2.10;;
12267;SDS011;6196;48.398;11.736;2023-07-31T15:08:45;4.82;;;2.00;;
12267;SDS011;6196;48.398;11.736;2023-07-31T15:11:12;5.72;;;2.22;;
12267;SDS011;6196;48.398;11.736;2023-07-31T15:13:41;2.55;;;2.00;;
12267;SDS011;6196;48.398;11.736;2023-07-31T15:16:08;3.97;;;2.17;;
12267;SDS011;6196;48.398;11.736;2023-07-31T15:18:35;3.57;;;2.33;;
12267;SDS011;6196;48.398;11.736;2023-07-31T15:21:02;4.03;;;2.15;;